createdAt,value
2018-06-10T00:01:47.057Z,14.03
2018-06-10T00:04:14.992Z,22.60
2018-06-10T00:06:43.177Z,22.33
2018-06-10T00:09:11.338Z,14.63
2018-06-10T00:11:39.496Z,13.30
2018-06-10T00:14:07.674Z,14.20
2018-06-10T00:16:35.842Z,13.97
2018-06-10T00:19:04.022Z,13.63
2018-06-10T00:21:32.198Z,14.43
2018-06-10T00:24:00.374Z,14.70
2018-06-10T00:26:28.543Z,15.07
2018-06-10T00:29:02.097Z,13.63
2018-06-10T00:31:30.025Z,14.50
2018-06-10T00:33:58.180Z,15.03
2018-06-10T00:36:26.345Z,15.70
2018-06-10T00:38:54.526Z,15.77
2018-06-10T00:41:22.684Z,15.47
2018-06-10T00:43:50.870Z,15.13
2018-06-10T00:46:19.030Z,14.77
2018-06-10T00:48:47.202Z,15.90
2018-06-10T00:51:15.362Z,15.50
2018-06-10T00:53:43.525Z,15.00
2018-06-10T00:56:23.128Z,14.63
2018-06-10T00:58:51.317Z,15.33
2018-06-10T01:01:19.505Z,14.70
2018-06-10T01:03:47.669Z,14.30
2018-06-10T01:06:15.838Z,15.47
2018-06-10T01:08:44.025Z,15.03
2018-06-10T01:11:12.181Z,14.83
2018-06-10T01:13:40.358Z,15.43
2018-06-10T01:16:08.525Z,15.23
2018-06-10T01:18:36.706Z,15.10
2018-06-10T01:21:04.880Z,17.60
2018-06-10T01:23:33.064Z,19.03
2018-06-10T01:26:01.246Z,18.47
2018-06-10T01:28:29.513Z,18.33
2018-06-10T01:30:58.453Z,19.50
2018-06-10T01:33:26.982Z,21.17
2018-06-10T01:35:55.149Z,18.43
2018-06-10T01:38:23.363Z,17.90
2018-06-10T01:40:51.295Z,19.80
2018-06-10T01:43:19.462Z,20.10
2018-06-10T01:45:47.645Z,20.00
2018-06-10T01:48:15.821Z,18.87
2018-06-10T01:50:43.992Z,17.80
2018-06-10T01:53:12.170Z,16.77
2018-06-10T01:55:40.342Z,17.33
2018-06-10T01:58:08.530Z,17.63
2018-06-10T02:00:36.714Z,17.50
2018-06-10T02:03:04.636Z,20.20
2018-06-10T02:05:32.830Z,17.83
2018-06-10T02:08:07.580Z,18.47
2018-06-10T02:10:35.764Z,18.90
2018-06-10T02:13:03.704Z,19.37
2018-06-10T02:15:31.878Z,20.40
2018-06-10T02:18:00.201Z,21.87
2018-06-10T02:20:28.392Z,19.73
2018-06-10T02:22:56.590Z,18.87
2018-06-10T02:25:24.797Z,18.83
2018-06-10T02:27:52.970Z,18.13
2018-06-10T02:30:21.129Z,19.30
2018-06-10T02:32:49.297Z,20.43
2018-06-10T02:35:17.471Z,18.83
2018-06-10T02:37:45.621Z,21.17
2018-06-10T02:40:13.821Z,22.40
2018-06-10T02:42:41.996Z,20.43
2018-06-10T02:45:10.169Z,20.70
2018-06-10T02:47:38.344Z,19.60
2018-06-10T02:50:06.533Z,19.23
2018-06-10T02:52:34.693Z,17.53
2018-06-10T02:55:02.874Z,16.90
2018-06-10T02:57:31.052Z,18.90
2018-06-10T02:59:59.262Z,18.63
2018-06-10T03:02:27.405Z,19.07
2018-06-10T03:04:55.578Z,19.07
2018-06-10T03:07:23.747Z,19.87
2018-06-10T03:09:51.912Z,20.07
2018-06-10T03:12:20.077Z,20.87
2018-06-10T03:14:48.253Z,17.80
2018-06-10T03:17:16.421Z,21.13
2018-06-10T03:19:44.605Z,23.47
2018-06-10T03:22:12.785Z,21.50
2018-06-10T03:24:40.957Z,20.83
2018-06-10T03:27:09.165Z,17.67
2018-06-10T03:29:37.097Z,20.40
2018-06-10T03:32:05.262Z,18.07
2018-06-10T03:34:33.442Z,16.60
2018-06-10T03:37:01.606Z,17.90
2018-06-10T03:39:29.753Z,17.50
2018-06-10T03:41:57.937Z,18.53
2018-06-10T03:44:26.101Z,20.03
2018-06-10T03:46:54.282Z,19.30
2018-06-10T03:49:22.455Z,17.97
2018-06-10T03:51:50.620Z,20.77
2018-06-10T03:54:18.801Z,21.20
2018-06-10T03:56:46.991Z,21.40
2018-06-10T03:59:15.152Z,22.20
2018-06-10T04:01:43.329Z,21.40
2018-06-10T04:04:11.493Z,22.70
2018-06-10T04:06:39.707Z,23.33
2018-06-10T04:09:07.975Z,22.57
2018-06-10T04:11:36.145Z,22.87
2018-06-10T04:14:04.306Z,22.57
2018-06-10T04:16:32.493Z,18.67
2018-06-10T04:19:00.654Z,18.27
2018-06-10T04:21:28.809Z,19.33
2018-06-10T04:23:57.793Z,17.97
2018-06-10T04:26:25.968Z,17.57
2018-06-10T04:28:54.128Z,16.37
2018-06-10T04:31:22.057Z,17.20
2018-06-10T04:33:50.205Z,19.50
2018-06-10T04:36:18.399Z,20.50
2018-06-10T04:38:46.554Z,19.60
2018-06-10T04:41:14.732Z,16.57
2018-06-10T04:43:42.905Z,15.93
2018-06-10T04:46:11.102Z,18.30
2018-06-10T04:48:39.313Z,17.20
2018-06-10T04:51:07.254Z,16.77
2018-06-10T04:53:41.964Z,15.67
2018-06-10T04:56:10.117Z,17.40
2018-06-10T04:58:38.286Z,16.03
2018-06-10T05:01:06.445Z,17.77
2018-06-10T05:03:34.621Z,17.33
2018-06-10T05:06:02.798Z,17.20
2018-06-10T05:08:30.959Z,17.93
2018-06-10T05:10:58.897Z,18.30
2018-06-10T05:13:27.064Z,17.70
2018-06-10T05:15:55.224Z,17.83
2018-06-10T05:18:23.410Z,18.20
2018-06-10T05:20:51.574Z,17.23
2018-06-10T05:23:19.821Z,18.70
2018-06-10T05:25:48.004Z,18.90
2018-06-10T05:28:16.185Z,17.27
2018-06-10T05:30:44.362Z,18.37
2018-06-10T05:33:12.542Z,18.47
2018-06-10T05:35:41.330Z,17.23
2018-06-10T05:38:09.506Z,17.10
2018-06-10T05:40:37.668Z,16.97
2018-06-10T05:43:05.885Z,16.60
2018-06-10T05:45:34.062Z,16.83
2018-06-10T05:48:02.247Z,17.43
2018-06-10T05:50:30.165Z,16.50
2018-06-10T05:52:58.333Z,17.07
2018-06-10T05:55:26.509Z,16.43
2018-06-10T05:57:54.710Z,15.33
2018-06-10T06:00:22.898Z,15.43
2018-06-10T06:02:51.105Z,15.93
2018-06-10T06:05:19.274Z,16.50
2018-06-10T06:07:47.195Z,16.33
2018-06-10T06:10:15.371Z,14.80
2018-06-10T06:12:43.555Z,15.83
2018-06-10T06:15:11.732Z,18.23
2018-06-10T06:17:40.643Z,17.07
2018-06-10T06:20:08.813Z,17.43
2018-06-10T06:22:37.001Z,15.40
2018-06-10T06:25:05.162Z,17.40
2018-06-10T06:27:33.230Z,15.30
2018-06-10T06:30:01.446Z,14.67
2018-06-10T06:32:29.618Z,15.90
2018-06-10T06:34:57.789Z,15.90
2018-06-10T06:37:25.958Z,16.20
2018-06-10T06:39:54.136Z,16.00
2018-06-10T06:42:22.308Z,16.87
2018-06-10T06:44:50.479Z,16.77
2018-06-10T06:47:18.681Z,16.50
2018-06-10T06:49:46.833Z,15.93
2018-06-10T06:52:15.022Z,15.73
2018-06-10T06:54:43.202Z,15.53
2018-06-10T06:57:11.381Z,16.97
2018-06-10T06:59:39.581Z,15.47
2018-06-10T07:02:07.788Z,16.10
2018-06-10T07:04:35.709Z,16.10
2018-06-10T07:07:03.889Z,16.97
2018-06-10T07:09:32.095Z,15.60
2018-06-10T07:12:00.051Z,16.30
2018-06-10T07:14:28.234Z,15.40
2018-06-10T07:16:56.413Z,16.30
2018-06-10T07:19:24.352Z,15.20
2018-06-10T07:21:52.510Z,15.33
2018-06-10T07:24:20.688Z,14.90
2018-06-10T07:26:48.857Z,16.33
2018-06-10T07:29:17.089Z,14.37
2018-06-10T07:31:45.284Z,14.20
2018-06-10T07:34:13.498Z,15.27
2018-06-10T07:36:41.646Z,16.23
2018-06-10T07:39:09.817Z,14.50
2018-06-10T07:41:37.973Z,14.67
2018-06-10T07:44:06.162Z,14.53
2018-06-10T07:46:34.333Z,14.43
2018-06-10T07:49:02.515Z,15.93
2018-06-10T07:51:30.665Z,13.93
2018-06-10T07:53:58.829Z,23.93
2018-06-10T07:56:27.001Z,15.17
2018-06-10T07:58:55.210Z,14.77
2018-06-10T08:01:23.359Z,15.00
2018-06-10T08:03:51.520Z,15.67
2018-06-10T08:06:19.449Z,14.70
2018-06-10T08:08:47.614Z,14.40
2018-06-10T08:11:15.765Z,14.63
2018-06-10T08:13:43.941Z,15.17
2018-06-10T08:16:12.081Z,13.83
2018-06-10T08:18:40.053Z,12.73
2018-06-10T08:21:08.207Z,13.10
2018-06-10T08:23:36.349Z,13.57
2018-06-10T08:26:04.524Z,12.67
2018-06-10T08:28:32.669Z,13.87
2018-06-10T08:31:00.861Z,13.20
2018-06-10T08:33:29.017Z,12.17
2018-06-10T08:35:57.178Z,11.00
2018-06-10T08:38:25.346Z,11.13
2018-06-10T08:40:53.246Z,12.10
2018-06-10T08:43:21.409Z,10.50
2018-06-10T08:45:49.575Z,11.47
2018-06-10T08:48:17.733Z,11.60
2018-06-10T08:50:45.661Z,11.33
2018-06-10T08:53:13.821Z,11.20
2018-06-10T08:55:41.993Z,12.10
2018-06-10T08:58:10.160Z,12.30
2018-06-10T09:00:38.324Z,11.73
2018-06-10T09:03:06.483Z,12.03
2018-06-10T09:05:34.670Z,12.90
2018-06-10T09:08:02.831Z,11.37
2018-06-10T09:10:31.015Z,11.37
2018-06-10T09:12:59.160Z,11.20
2018-06-10T09:15:27.326Z,10.80
2018-06-10T09:17:55.502Z,10.47
2018-06-10T09:20:23.694Z,10.70
2018-06-10T09:22:51.861Z,11.27
2018-06-10T09:25:20.029Z,11.40
2018-06-10T09:27:48.205Z,10.07
2018-06-10T09:30:16.373Z,8.40
2018-06-10T09:32:44.285Z,9.17
2018-06-10T09:35:12.456Z,8.87
2018-06-10T09:37:40.634Z,9.20
2018-06-10T09:40:08.785Z,9.80
2018-06-10T09:42:36.950Z,9.67
2018-06-10T09:45:05.247Z,9.53
2018-06-10T09:47:33.420Z,7.77
2018-06-10T09:50:01.605Z,8.70
2018-06-10T09:52:29.777Z,8.53
2018-06-10T09:54:57.921Z,8.80
2018-06-10T09:57:25.832Z,8.83
2018-06-10T09:59:53.999Z,8.60
2018-06-10T10:02:22.153Z,8.13
2018-06-10T10:04:50.330Z,7.90
2018-06-10T10:07:18.481Z,7.80
2018-06-10T10:09:46.647Z,8.33
2018-06-10T10:12:14.822Z,7.73
2018-06-10T10:14:43.039Z,6.70
2018-06-10T10:17:11.153Z,7.10
2018-06-10T10:19:39.337Z,6.90
2018-06-10T10:22:07.493Z,6.33
2018-06-10T10:24:35.673Z,6.97
2018-06-10T10:27:03.841Z,6.57
2018-06-10T10:29:31.989Z,6.47
2018-06-10T10:32:00.157Z,6.43
2018-06-10T10:34:28.335Z,6.40
2018-06-10T10:36:56.482Z,5.90
2018-06-10T10:39:24.639Z,6.03
2018-06-10T10:41:52.821Z,5.27
2018-06-10T10:44:20.983Z,5.37
2018-06-10T10:46:49.161Z,5.70
2018-06-10T10:49:17.074Z,5.60
2018-06-10T10:51:45.234Z,5.70
2018-06-10T10:54:13.382Z,5.77
2018-06-10T10:56:41.322Z,4.80
2018-06-10T10:59:09.487Z,5.00
2018-06-10T11:01:37.673Z,5.43
2018-06-10T11:04:05.868Z,5.33
2018-06-10T11:06:33.801Z,5.90
2018-06-10T11:09:01.946Z,5.90
2018-06-10T11:11:30.121Z,5.90
2018-06-10T11:13:58.261Z,6.23
2018-06-10T11:16:26.190Z,5.93
2018-06-10T11:18:54.349Z,6.10
2018-06-10T11:21:22.542Z,5.97
2018-06-10T11:23:50.686Z,6.20
2018-06-10T11:26:18.863Z,5.60
2018-06-10T11:28:47.000Z,5.40
2018-06-10T11:31:15.227Z,5.23
2018-06-10T11:33:43.113Z,5.20
2018-06-10T11:36:11.273Z,5.20
2018-06-10T11:38:39.430Z,4.90
2018-06-10T11:41:07.605Z,5.13
2018-06-10T11:43:35.761Z,4.47
2018-06-10T11:46:03.923Z,4.30
2018-06-10T11:48:32.082Z,4.43
2018-06-10T11:50:59.981Z,4.47
2018-06-10T11:53:28.154Z,5.03
2018-06-10T11:55:56.305Z,4.37
2018-06-10T11:58:24.458Z,3.93
2018-06-10T12:00:52.621Z,4.13
2018-06-10T12:03:20.786Z,4.10
2018-06-10T12:05:48.954Z,5.83
2018-06-10T12:08:17.141Z,6.23
2018-06-10T12:10:45.313Z,6.13
2018-06-10T12:13:13.489Z,5.37
2018-06-10T12:15:41.696Z,5.50
2018-06-10T12:18:09.862Z,4.67
2018-06-10T12:20:37.786Z,3.73
2018-06-10T12:23:05.949Z,4.40
2018-06-10T12:25:34.097Z,4.83
2018-06-10T12:28:02.279Z,5.60
2018-06-10T12:30:30.412Z,5.70
2018-06-10T12:32:58.567Z,5.33
2018-06-10T12:35:26.718Z,5.27
2018-06-10T12:37:54.889Z,5.10
2018-06-10T12:40:23.077Z,5.43
2018-06-10T12:42:51.236Z,6.00
2018-06-10T12:45:19.389Z,6.07
2018-06-10T12:47:47.546Z,6.03
2018-06-10T12:50:15.702Z,5.30
2018-06-10T12:52:43.874Z,5.97
2018-06-10T12:55:12.025Z,5.57
2018-06-10T12:57:40.190Z,5.23
2018-06-10T13:00:08.365Z,6.00
2018-06-10T13:02:36.502Z,5.00
2018-06-10T13:05:04.668Z,5.73
2018-06-10T13:07:32.825Z,5.83
2018-06-10T13:10:00.996Z,7.10
2018-06-10T13:12:29.184Z,7.53
2018-06-10T13:14:57.362Z,5.47
2018-06-10T13:17:25.521Z,4.27
2018-06-10T13:19:53.677Z,5.47
2018-06-10T13:22:21.833Z,6.20
2018-06-10T13:24:50.021Z,5.50
2018-06-10T13:27:18.157Z,5.23
2018-06-10T13:29:46.325Z,4.57
2018-06-10T13:32:14.462Z,5.17
2018-06-10T13:34:42.372Z,4.70
2018-06-10T13:37:10.525Z,5.07
2018-06-10T13:39:38.693Z,4.90
2018-06-10T13:42:06.841Z,5.23
2018-06-10T13:44:35.007Z,5.20
2018-06-10T13:47:03.157Z,5.20
2018-06-10T13:49:31.348Z,4.80
2018-06-10T13:51:59.505Z,4.97
2018-06-10T13:54:27.699Z,5.67
2018-06-10T13:56:55.837Z,5.37
2018-06-10T13:59:24.024Z,6.27
2018-06-10T14:01:52.137Z,5.20
2018-06-10T14:04:20.063Z,5.77
2018-06-10T14:06:48.247Z,5.63
2018-06-10T14:09:16.378Z,5.30
2018-06-10T14:11:44.536Z,5.40
2018-06-10T14:14:12.477Z,5.53
2018-06-10T14:16:40.628Z,5.30
2018-06-10T14:19:08.773Z,5.70
2018-06-10T14:21:36.938Z,5.63
2018-06-10T14:24:05.085Z,5.93
2018-06-10T14:26:33.241Z,5.40
2018-06-10T14:29:01.413Z,5.70
2018-06-10T14:31:29.574Z,6.13
2018-06-10T14:33:57.766Z,6.00
2018-06-10T14:36:25.923Z,5.37
2018-06-10T14:38:54.101Z,5.63
2018-06-10T14:41:22.266Z,6.67
2018-06-10T14:43:50.438Z,5.30
2018-06-10T14:46:18.580Z,5.63
2018-06-10T14:48:46.762Z,6.00
2018-06-10T14:51:14.925Z,5.50
2018-06-10T14:53:43.057Z,4.33
2018-06-10T14:56:11.234Z,5.33
2018-06-10T14:58:39.388Z,4.57
2018-06-10T15:01:07.581Z,3.90
2018-06-10T15:03:35.726Z,4.77
2018-06-10T15:06:03.913Z,4.77
2018-06-10T15:08:32.060Z,5.10
2018-06-10T15:11:00.225Z,5.30
2018-06-10T15:13:28.397Z,5.33
2018-06-10T15:15:56.607Z,5.70
2018-06-10T15:18:24.745Z,4.97
2018-06-10T15:20:52.914Z,4.90
2018-06-10T15:23:21.060Z,4.80
2018-06-10T15:25:49.254Z,48.97
2018-06-10T15:28:17.160Z,5.97
2018-06-10T15:30:45.296Z,4.63
2018-06-10T15:33:13.470Z,5.70
2018-06-10T15:35:41.679Z,4.90
2018-06-10T15:38:09.817Z,4.80
2018-06-10T15:40:38.044Z,5.17
2018-06-10T15:43:06.160Z,10.83
2018-06-10T15:45:34.176Z,8.50
2018-06-10T15:48:02.297Z,4.80
2018-06-10T15:50:30.249Z,5.17
2018-06-10T15:52:58.405Z,6.23
2018-06-10T15:55:26.574Z,6.27
2018-06-10T15:57:54.737Z,8.60
2018-06-10T16:00:22.928Z,6.10
2018-06-10T16:02:51.109Z,5.60
2018-06-10T16:05:19.296Z,5.40
2018-06-10T16:07:47.409Z,6.17
2018-06-10T16:10:15.581Z,5.43
2018-06-10T16:12:43.716Z,8.60
2018-06-10T16:15:11.955Z,5.50
2018-06-10T16:17:40.103Z,5.60
2018-06-10T16:20:08.260Z,5.40
2018-06-10T16:22:36.407Z,5.47
2018-06-10T16:25:04.616Z,5.47
2018-06-10T16:27:32.784Z,5.10
2018-06-10T16:30:00.949Z,5.53
2018-06-10T16:32:29.208Z,5.87
2018-06-10T16:34:57.365Z,5.40
2018-06-10T16:37:25.564Z,5.90
2018-06-10T16:39:53.763Z,6.13
2018-06-10T16:42:21.898Z,6.00
2018-06-10T16:44:50.068Z,5.57
2018-06-10T16:47:18.265Z,5.60
2018-06-10T16:49:46.208Z,5.93
2018-06-10T16:52:14.403Z,5.57
2018-06-10T16:54:42.561Z,5.90
2018-06-10T16:57:10.725Z,5.40
2018-06-10T16:59:38.877Z,5.83
2018-06-10T17:02:07.053Z,5.97
2018-06-10T17:04:35.216Z,6.70
2018-06-10T17:07:03.394Z,6.43
2018-06-10T17:09:31.544Z,6.20
2018-06-10T17:11:59.722Z,6.83
2018-06-10T17:14:27.879Z,6.73
2018-06-10T17:16:56.037Z,6.67
2018-06-10T17:19:24.214Z,7.43
2018-06-10T17:21:52.388Z,6.63
2018-06-10T17:24:20.543Z,7.43
2018-06-10T17:26:48.698Z,7.60
2018-06-10T17:29:16.846Z,7.50
2018-06-10T17:31:45.035Z,6.90
2018-06-10T17:34:13.203Z,6.97
2018-06-10T17:36:41.353Z,7.70
2018-06-10T17:39:09.509Z,7.67
2018-06-10T17:41:37.666Z,7.73
2018-06-10T17:44:05.822Z,8.40
2018-06-10T17:46:33.993Z,7.70
2018-06-10T17:49:02.146Z,7.43
2018-06-10T17:51:30.320Z,7.80
2018-06-10T17:53:58.572Z,8.07
2018-06-10T17:56:26.676Z,8.10
2018-06-10T17:58:54.864Z,7.70
2018-06-10T18:01:23.090Z,8.80
2018-06-10T18:03:51.036Z,8.63
2018-06-10T18:06:19.248Z,8.30
2018-06-10T18:08:47.369Z,8.30
2018-06-10T18:11:15.534Z,8.10
2018-06-10T18:13:43.697Z,8.30
2018-06-10T18:16:11.851Z,8.53
2018-06-10T18:18:40.030Z,8.60
2018-06-10T18:21:08.233Z,8.10
2018-06-10T18:23:36.424Z,8.13
2018-06-10T18:26:04.622Z,7.57
2018-06-10T18:28:32.574Z,8.13
2018-06-10T18:31:00.727Z,8.97
2018-06-10T18:33:28.898Z,8.60
2018-06-10T18:35:57.076Z,8.30
2018-06-10T18:38:25.242Z,8.00
2018-06-10T18:40:53.438Z,7.73
2018-06-10T18:43:21.621Z,7.63
2018-06-10T18:45:49.768Z,7.97
2018-06-10T18:48:17.935Z,8.73
2018-06-10T18:50:46.075Z,8.13
2018-06-10T18:53:14.333Z,8.27
2018-06-10T18:55:42.293Z,12.93
2018-06-10T18:58:10.530Z,8.70
2018-06-10T19:00:38.777Z,8.23
2018-06-10T19:03:06.974Z,10.30
2018-06-10T19:05:35.127Z,7.80
2018-06-10T19:08:03.322Z,10.87
2018-06-10T19:10:31.486Z,8.03
2018-06-10T19:12:59.669Z,7.83
2018-06-10T19:15:27.845Z,9.00
2018-06-10T19:17:56.054Z,9.70
2018-06-10T19:20:24.212Z,8.90
2018-06-10T19:22:52.398Z,8.53
2018-06-10T19:25:20.557Z,7.90
2018-06-10T19:27:48.715Z,8.40
2018-06-10T19:30:16.869Z,8.03
2018-06-10T19:32:45.094Z,8.77
2018-06-10T19:35:13.231Z,8.10
2018-06-10T19:37:41.401Z,8.27
2018-06-10T19:40:09.579Z,8.00
2018-06-10T19:42:37.745Z,8.23
2018-06-10T19:45:05.922Z,11.97
2018-06-10T19:47:34.083Z,8.97
2018-06-10T19:50:02.233Z,8.17
2018-06-10T19:52:30.402Z,8.80
2018-06-10T19:54:58.338Z,7.40
2018-06-10T19:57:26.517Z,8.00
2018-06-10T19:59:54.689Z,8.63
2018-06-10T20:02:22.895Z,8.67
2018-06-10T20:04:50.854Z,8.37
2018-06-10T20:07:19.033Z,9.37
2018-06-10T20:09:46.978Z,9.07
2018-06-10T20:12:15.144Z,9.87
2018-06-10T20:14:43.328Z,8.93
2018-06-10T20:17:11.551Z,7.73
2018-06-10T20:19:39.746Z,8.63
2018-06-10T20:22:07.914Z,15.47
2018-06-10T20:24:36.103Z,14.60
2018-06-10T20:27:04.256Z,8.60
2018-06-10T20:29:32.457Z,35.53
2018-06-10T20:32:00.609Z,25.47
2018-06-10T20:34:28.802Z,10.33
2018-06-10T20:36:56.970Z,8.90
2018-06-10T20:39:25.166Z,9.80
2018-06-10T20:41:53.364Z,10.77
2018-06-10T20:44:21.311Z,10.10
2018-06-10T20:46:49.482Z,9.17
2018-06-10T20:49:17.640Z,10.80
2018-06-10T20:51:45.794Z,9.53
2018-06-10T20:54:13.988Z,10.73
2018-06-10T20:56:42.148Z,12.10
2018-06-10T20:59:10.314Z,7.80
2018-06-10T21:01:38.483Z,8.80
2018-06-10T21:04:06.630Z,8.70
2018-06-10T21:06:34.543Z,8.70
2018-06-10T21:09:02.725Z,8.93
2018-06-10T21:11:30.899Z,8.77
2018-06-10T21:13:59.094Z,7.87
2018-06-10T21:16:27.251Z,8.47
2018-06-10T21:18:55.404Z,8.77
2018-06-10T21:21:23.675Z,8.80
2018-06-10T21:23:51.839Z,9.17
2018-06-10T21:26:20.014Z,11.17
2018-06-10T21:28:48.170Z,10.77
2018-06-10T21:31:16.362Z,10.03
2018-06-10T21:33:44.549Z,9.93
2018-06-10T21:36:12.734Z,11.57
2018-06-10T21:38:40.893Z,10.80
2018-06-10T21:41:09.076Z,12.63
2018-06-10T21:43:37.261Z,11.27
2018-06-10T21:46:05.456Z,12.07
2018-06-10T21:48:33.638Z,12.30
2018-06-10T21:51:01.809Z,23.93
2018-06-10T21:53:29.977Z,13.63
2018-06-10T21:55:58.176Z,13.47
2018-06-10T21:58:26.360Z,15.60
2018-06-10T22:00:55.600Z,15.53
2018-06-10T22:03:23.874Z,15.00
2018-06-10T22:05:52.058Z,16.37
2018-06-10T22:08:20.257Z,14.73
2018-06-10T22:10:48.438Z,15.83
2018-06-10T22:13:16.640Z,16.10
2018-06-10T22:15:44.578Z,17.03
2018-06-10T22:18:12.758Z,14.83
2018-06-10T22:20:40.943Z,15.87
2018-06-10T22:23:09.130Z,15.67
2018-06-10T22:25:37.312Z,15.97
2018-06-10T22:28:05.482Z,14.83
2018-06-10T22:30:33.685Z,13.77
2018-06-10T22:33:01.851Z,14.93
2018-06-10T22:35:30.010Z,15.50
2018-06-10T22:37:58.165Z,16.40
2018-06-10T22:40:26.357Z,16.00
2018-06-10T22:42:54.541Z,15.83
2018-06-10T22:45:22.718Z,17.03
2018-06-10T22:47:50.873Z,17.47
2018-06-10T22:50:19.061Z,15.83
2018-06-10T22:52:48.125Z,13.90
2018-06-10T22:55:16.299Z,13.73
2018-06-10T22:57:44.208Z,14.27
2018-06-10T23:00:12.403Z,14.33
2018-06-10T23:02:40.570Z,16.33
2018-06-10T23:05:08.743Z,15.70
2018-06-10T23:07:36.921Z,15.80
2018-06-10T23:10:05.098Z,16.53
2018-06-10T23:12:33.284Z,16.77
2018-06-10T23:15:01.462Z,16.53
2018-06-10T23:17:29.639Z,14.33
2018-06-10T23:19:57.854Z,14.40
2018-06-10T23:22:26.051Z,13.93
2018-06-10T23:24:54.214Z,15.87
2018-06-10T23:27:22.452Z,17.57
2018-06-10T23:29:50.598Z,16.63
2018-06-10T23:32:18.794Z,16.83
2018-06-10T23:34:46.953Z,14.77
2018-06-10T23:37:15.118Z,17.40
2018-06-10T23:39:43.285Z,15.70
2018-06-10T23:42:11.469Z,17.23
2018-06-10T23:44:39.641Z,17.33
2018-06-10T23:47:07.818Z,18.40
2018-06-10T23:49:35.986Z,18.53
2018-06-10T23:52:04.187Z,16.87
2018-06-10T23:54:32.385Z,16.50
2018-06-10T23:57:00.302Z,17.47
2018-06-10T23:59:28.478Z,17.47
